Time;durP1;ratioP1;P1;durP2;ratioP2;P2;SDS_P1;SDS_P2;PMS_P1;PMS_P2;Temp;Humidity;BMP_temperature;BMP_pressure;BME280_temperature;BME280_humidity;BME280_pressure;Samples;Min_cycle;Max_cycle;Signal;HPM_P1;HPM_P2
2023/12/09 00:04:12;;;;;;;35.70;12.15;;;;;;;7.24;100.00;100897.22;10332569;28;20034;-73
2023/12/09 00:09:13;;;;;;;28.58;10.77;;;;;;;7.29;100.00;100911.03;10334561;28;20044;-72
2023/12/09 00:14:13;;;;;;;18.55;10.70;;;;;;;7.30;100.00;100903.78;10336215;28;20169;-72
2023/12/09 00:19:13;;;;;;;29.08;12.68;;;;;;;7.40;100.00;100909.78;10335036;28;20045;-73
2023/12/09 00:24:14;;;;;;;37.97;11.52;;;;;;;7.34;100.00;100914.03;10332976;28;20030;-73
2023/12/09 00:29:14;;;;;;;31.38;10.85;;;;;;;7.41;100.00;100917.69;10314594;28;20034;-72
2023/12/09 00:34:15;;;;;;;27.98;10.75;;;;;;;7.44;100.00;100911.13;10332936;28;20445;-72
2023/12/09 00:39:15;;;;;;;46.65;12.75;;;;;;;7.45;100.00;100907.41;10334074;28;20093;-72
2023/12/09 00:44:17;;;;;;;23.70;10.27;;;;;;;7.41;100.00;100901.53;10338676;28;20378;-72
2023/12/09 00:49:18;;;;;;;27.67;9.98;;;;;;;7.42;100.00;100896.97;10337793;28;20061;-75
2023/12/09 00:54:18;;;;;;;27.52;8.07;;;;;;;7.39;100.00;100905.41;10337736;28;20033;-73
2023/12/09 00:59:18;;;;;;;20.70;10.27;;;;;;;7.22;100.00;100885.81;10338229;28;20038;-74
2023/12/09 01:04:19;;;;;;;34.08;11.07;;;;;;;7.20;100.00;100885.13;10338227;28;20467;-71
2023/12/09 01:09:19;;;;;;;20.75;7.20;;;;;;;7.08;100.00;100884.69;10338499;28;20061;-72
2023/12/09 01:14:20;;;;;;;19.58;7.18;;;;;;;6.92;100.00;100879.38;10338196;28;20027;-72
2023/12/09 01:19:20;;;;;;;19.05;8.38;;;;;;;6.83;100.00;100878.59;10336948;28;20176;-72
2023/12/09 01:24:21;;;;;;;30.38;9.05;;;;;;;6.80;100.00;100878.09;10338688;28;20049;-73
2023/12/09 01:29:21;;;;;;;22.45;8.18;;;;;;;6.74;100.00;100872.38;10337462;28;20389;-73
2023/12/09 01:34:21;;;;;;;23.23;7.85;;;;;;;6.69;100.00;100847.00;10337483;28;20080;-72
2023/12/09 01:39:22;;;;;;;35.03;8.50;;;;;;;6.72;100.00;100841.25;10337288;28;20045;-72
2023/12/09 01:44:22;;;;;;;33.00;8.13;;;;;;;6.67;100.00;100847.19;10336878;28;20562;-72
2023/12/09 01:49:23;;;;;;;28.75;8.55;;;;;;;6.63;100.00;100861.13;10336803;28;20129;-72
2023/12/09 01:54:23;;;;;;;39.00;9.52;;;;;;;6.65;100.00;100845.66;10302910;28;20485;-74
2023/12/09 01:59:24;;;;;;;25.08;9.00;;;;;;;6.58;100.00;100855.44;10335182;28;20114;-71
2023/12/09 02:04:24;;;;;;;17.08;8.45;;;;;;;6.55;100.00;100851.25;10334890;28;20057;-71
2023/12/09 02:09:24;;;;;;;12.05;6.78;;;;;;;6.46;100.00;100841.50;10319627;28;20054;-73
2023/12/09 02:14:58;;;;;;;12.35;6.50;;;;;;;6.39;100.00;100846.75;10336210;28;20026;-74
2023/12/09 02:20:00;;;;;;;11.50;6.50;;;;;;;6.28;100.00;100830.94;10320080;28;20042;-72
2023/12/09 02:25:01;;;;;;;23.33;9.63;;;;;;;6.31;100.00;100843.22;10334496;28;20125;-72
2023/12/09 02:30:16;;;;;;;20.48;7.13;;;;;;;6.21;100.00;100824.59;10335515;28;20053;-73
2023/12/09 02:35:17;;;;;;;17.73;7.70;;;;;;;6.19;100.00;100814.03;10335429;28;20097;-73
2023/12/09 02:40:17;;;;;;;15.40;5.63;;;;;;;6.18;100.00;100808.78;10337299;28;20046;-74
2023/12/09 02:45:19;;;;;;;19.70;8.27;;;;;;;6.11;100.00;100789.81;10340248;28;20092;-71
2023/12/09 02:50:19;;;;;;;27.42;8.95;;;;;;;6.10;100.00;100784.63;10336240;28;20549;-73
2023/12/09 02:55:20;;;;;;;17.98;7.97;;;;;;;6.10;100.00;100798.91;10335176;28;20136;-73
2023/12/09 03:00:21;;;;;;;26.52;8.23;;;;;;;6.10;100.00;100801.59;10336705;28;20038;-72
2023/12/09 03:05:22;;;;;;;23.75;8.93;;;;;;;6.05;100.00;100795.88;10338809;28;20371;-72
2023/12/09 03:10:22;;;;;;;22.05;8.00;;;;;;;5.99;100.00;100797.41;10333329;28;20041;-71
2023/12/09 03:15:23;;;;;;;23.80;9.57;;;;;;;6.00;100.00;100799.09;10334286;28;20117;-72
2023/12/09 03:20:25;;;;;;;25.60;10.32;;;;;;;5.97;100.00;100793.22;10331895;28;20038;-72
2023/12/09 03:25:25;;;;;;;30.13;8.75;;;;;;;5.93;100.00;100779.25;10333633;28;20390;-72
2023/12/09 03:30:26;;;;;;;21.70;7.88;;;;;;;5.92;100.00;100787.47;10332123;28;20034;-72
2023/12/09 03:35:26;;;;;;;23.40;9.02;;;;;;;5.89;100.00;100771.69;10316097;28;20093;-72
2023/12/09 03:40:26;;;;;;;27.08;10.00;;;;;;;5.88;100.00;100762.78;10316512;28;20034;-72
2023/12/09 03:45:27;;;;;;;31.33;9.38;;;;;;;5.83;100.00;100755.22;10333911;28;20080;-73
2023/12/09 03:50:27;;;;;;;22.25;7.63;;;;;;;5.89;100.00;100747.50;10331624;28;20142;-72
2023/12/09 03:55:28;;;;;;;24.38;8.52;;;;;;;5.92;100.00;100744.47;10331716;28;20066;-73
2023/12/09 04:00:29;;;;;;;26.67;9.73;;;;;;;6.09;100.00;100740.75;10333546;28;20046;-74
2023/12/09 04:05:29;;;;;;;21.83;7.03;;;;;;;5.99;100.00;100726.69;10332861;28;20094;-72
2023/12/09 04:10:30;;;;;;;27.35;10.60;;;;;;;6.00;100.00;100736.44;10333374;28;20117;-71
2023/12/09 04:15:30;;;;;;;13.82;7.50;;;;;;;5.99;100.00;100738.25;10337651;28;20529;-72
2023/12/09 04:20:31;;;;;;;23.50;8.63;;;;;;;5.99;100.00;100722.13;10342747;28;20046;-73
2023/12/09 04:25:31;;;;;;;24.35;9.15;;;;;;;6.00;100.00;100714.94;10341213;28;20466;-73
2023/12/09 04:30:32;;;;;;;17.02;7.03;;;;;;;6.07;100.00;100718.59;10339485;28;20060;-71
2023/12/09 04:35:32;;;;;;;27.67;9.27;;;;;;;6.20;100.00;100700.06;10339756;28;20034;-72
2023/12/09 04:40:32;;;;;;;23.60;8.52;;;;;;;6.24;100.00;100698.69;10339969;28;20046;-71
2023/12/09 04:45:33;;;;;;;27.08;9.38;;;;;;;6.29;100.00;100701.72;10339372;28;20038;-72
2023/12/09 04:50:33;;;;;;;31.83;9.13;;;;;;;6.24;100.00;100698.69;10337905;28;20182;-73
2023/12/09 04:55:34;;;;;;;29.58;8.15;;;;;;;6.31;100.00;100698.00;10338558;28;20494;-71
2023/12/09 05:00:34;;;;;;;21.45;8.35;;;;;;;6.35;100.00;100684.06;10339255;28;20047;-72
2023/12/09 05:05:34;;;;;;;19.63;7.65;;;;;;;6.38;100.00;100689.09;10339443;28;20065;-71
2023/12/09 05:10:35;;;;;;;32.80;8.18;;;;;;;6.35;100.00;100669.75;10338973;28;20034;-72
2023/12/09 05:15:35;;;;;;;16.70;8.25;;;;;;;6.39;100.00;100674.59;10337938;28;20071;-73
2023/12/09 05:20:36;;;;;;;30.08;10.00;;;;;;;6.43;100.00;100670.53;10337614;28;20113;-71
2023/12/09 05:25:36;;;;;;;18.38;8.52;;;;;;;6.47;100.00;100666.47;10336890;28;20073;-73
2023/12/09 05:30:36;;;;;;;30.08;11.77;;;;;;;6.47;100.00;100668.34;10337714;28;20070;-73
2023/12/09 05:35:37;;;;;;;22.52;9.98;;;;;;;6.43;100.00;100654.41;10335561;28;20066;-73
2023/12/09 05:40:37;;;;;;;17.48;10.00;;;;;;;6.45;100.00;100625.50;10335962;28;20129;-74
2023/12/09 05:45:38;;;;;;;30.67;9.55;;;;;;;6.46;100.00;100623.63;10336375;28;20026;-74
2023/12/09 05:50:38;;;;;;;27.98;10.13;;;;;;;6.53;100.00;100622.72;10334764;28;20054;-73
2023/12/09 05:55:40;;;;;;;24.60;10.57;;;;;;;6.58;100.00;100630.28;10335860;28;20052;-72
2023/12/09 06:00:40;;;;;;;18.55;9.38;;;;;;;6.58;100.00;100614.16;10337761;28;20129;-73
2023/12/09 06:05:40;;;;;;;17.48;8.85;;;;;;;6.55;100.00;100619.88;10336356;28;20040;-73
2023/12/09 06:10:41;;;;;;;26.50;9.68;;;;;;;6.56;100.00;100618.03;10336685;28;20057;-74
2023/12/09 06:15:41;;;;;;;29.70;12.70;;;;;;;6.57;100.00;100599.00;10335394;28;20121;-74
2023/12/09 06:20:42;;;;;;;21.95;10.70;;;;;;;6.58;100.00;100584.56;10335690;28;20035;-73
2023/12/09 06:25:42;;;;;;;26.90;13.20;;;;;;;6.50;100.00;100566.59;10335290;28;20181;-73
2023/12/09 06:30:42;;;;;;;32.65;13.57;;;;;;;6.49;100.00;100542.59;10334497;28;20047;-72
2023/12/09 06:35:43;;;;;;;26.67;14.57;;;;;;;6.44;100.00;100529.66;10333994;28;20065;-72
2023/12/09 06:40:43;;;;;;;34.03;13.32;;;;;;;6.41;100.00;100511.19;10334549;28;20065;-74
2023/12/09 06:45:44;;;;;;;27.15;14.88;;;;;;;6.47;100.00;100507.78;10335353;28;20050;-73
2023/12/09 06:50:44;;;;;;;27.65;15.30;;;;;;;6.49;100.00;100491.47;10336068;28;20058;-73
2023/12/09 06:55:45;;;;;;;28.85;17.48;;;;;;;6.49;100.00;100500.38;10334236;28;20038;-72
2023/12/09 07:00:46;;;;;;;27.35;15.65;;;;;;;6.53;100.00;100487.41;10335290;28;20042;-72
2023/12/09 07:05:46;;;;;;;31.05;14.27;;;;;;;6.58;100.00;100479.63;10335494;28;20038;-74
2023/12/09 07:10:47;;;;;;;32.05;16.25;;;;;;;6.54;100.00;100494.47;10332443;28;20414;-74
2023/12/09 07:15:47;;;;;;;24.92;14.75;;;;;;;6.54;100.00;100483.72;10333480;28;20471;-72
2023/12/09 07:20:48;;;;;;;29.15;16.35;;;;;;;6.60;100.00;100476.75;10332939;28;20043;-74
2023/12/09 07:25:48;;;;;;;34.40;18.63;;;;;;;6.62;100.00;100474.72;10334502;28;20356;-74
2023/12/09 07:30:48;;;;;;;27.40;17.63;;;;;;;6.60;100.00;100445.28;10333942;28;20038;-74
2023/12/09 07:35:49;;;;;;;47.22;18.80;;;;;;;6.64;100.00;100449.31;10336388;28;20030;-74
2023/12/09 07:40:49;;;;;;;39.38;20.95;;;;;;;6.62;100.00;100443.25;10337037;28;20475;-73
2023/12/09 07:45:50;;;;;;;34.55;18.77;;;;;;;6.74;100.00;100447.19;10332159;28;20162;-72
2023/12/09 07:50:51;;;;;;;29.67;17.52;;;;;;;6.81;100.00;100449.16;10332908;28;20061;-72
2023/12/09 07:55:51;;;;;;;32.28;17.52;;;;;;;6.87;100.00;100429.56;10333627;28;20042;-72
2023/12/09 08:00:52;;;;;;;30.73;17.17;;;;;;;6.89;100.00;100438.28;10331376;28;20034;-72
2023/12/09 08:05:53;;;;;;;27.88;18.40;;;;;;;6.95;100.00;100445.63;10333593;28;20173;-72
2023/12/09 08:10:53;;;;;;;38.83;16.90;;;;;;;6.93;100.00;100432.34;10331268;28;20114;-72
2023/12/09 08:15:54;;;;;;;35.63;17.30;;;;;;;6.99;100.00;100426.22;10332789;28;20042;-72
2023/12/09 08:20:55;;;;;;;32.30;15.93;;;;;;;7.01;100.00;100409.88;10332027;28;20034;-74
2023/12/09 08:25:55;;;;;;;32.15;15.63;;;;;;;7.10;100.00;100398.00;10331620;28;20034;-75
2023/12/09 08:30:55;;;;;;;31.88;15.63;;;;;;;7.14;100.00;100391.19;10331243;28;20069;-74
2023/12/09 08:35:56;;;;;;;24.50;14.68;;;;;;;7.21;100.00;100373.28;10333041;28;20062;-73
2023/12/09 08:40:56;;;;;;;20.00;13.20;;;;;;;7.25;100.00;100340.59;10331589;28;20526;-72
2023/12/09 08:45:57;;;;;;;15.23;12.68;;;;;;;7.31;100.00;100319.13;10334343;28;20121;-73
2023/12/09 08:50:57;;;;;;;27.40;15.00;;;;;;;7.26;100.00;100310.78;10331213;28;20113;-73
2023/12/09 08:55:58;;;;;;;20.73;15.02;;;;;;;7.32;100.00;100315.41;10329924;28;20034;-73
2023/12/09 09:00:58;;;;;;;21.38;11.35;;;;;;;7.42;100.00;100304.31;10334117;28;20034;-73
2023/12/09 09:05:59;;;;;;;16.73;11.07;;;;;;;7.49;100.00;100309.75;10339097;28;20451;-72
2023/12/09 09:10:59;;;;;;;18.80;12.77;;;;;;;7.56;100.00;100313.34;10336948;28;20069;-72
2023/12/09 09:16:00;;;;;;;17.60;10.20;;;;;;;7.64;100.00;100291.69;10337839;28;20034;-72
2023/12/09 09:21:00;;;;;;;25.50;12.05;;;;;;;7.66;100.00;100274.28;10338673;28;20034;-73
2023/12/09 09:26:01;;;;;;;19.80;9.98;;;;;;;7.67;100.00;100257.09;10338497;28;20448;-73
2023/12/09 09:31:01;;;;;;;13.52;9.20;;;;;;;7.68;100.00;100237.19;10338715;28;20117;-73
2023/12/09 09:36:02;;;;;;;21.23;11.88;;;;;;;7.73;100.00;100241.19;10340419;28;20073;-72
2023/12/09 09:41:05;;;;;;;36.65;9.10;;;;;;;7.64;100.00;100198.19;10340935;28;20037;-73
2023/12/09 09:46:07;;;;;;;23.88;10.23;;;;;;;7.67;100.00;100192.41;10342290;28;20102;-74
2023/12/09 09:51:07;;;;;;;17.02;7.32;;;;;;;7.65;100.00;100164.81;10352402;28;20042;-71
2023/12/09 09:56:08;;;;;;;8.90;6.55;;;;;;;7.64;100.00;100171.25;10343672;28;20038;-73
2023/12/09 10:01:09;;;;;;;25.92;6.90;;;;;;;7.66;100.00;100138.72;10337769;28;20100;-72
2023/12/09 10:06:10;;;;;;;20.13;7.65;;;;;;;7.64;100.00;100114.66;10339733;28;20038;-73
2023/12/09 10:11:10;;;;;;;15.80;5.90;;;;;;;7.59;100.00;100110.88;10308508;28;20121;-74
2023/12/09 10:16:10;;;;;;;14.93;5.93;;;;;;;7.56;100.00;100097.81;10336840;28;20034;-74
2023/12/09 10:21:11;;;;;;;10.95;5.40;;;;;;;7.59;100.00;100074.00;10336147;28;20043;-72
2023/12/09 10:26:12;;;;;;;11.77;6.50;;;;;;;7.58;100.00;100045.41;10336594;28;20423;-71
2023/12/09 10:31:12;;;;;;;10.30;6.32;;;;;;;7.60;100.00;100035.25;10333681;28;20426;-71
2023/12/09 10:36:13;;;;;;;5.18;3.97;;;;;;;7.64;100.00;100020.34;10335970;28;20082;-71
2023/12/09 10:41:15;;;;;;;9.52;5.82;;;;;;;7.56;100.00;99992.72;10335910;28;20446;-72
2023/12/09 10:46:15;;;;;;;24.65;6.63;;;;;;;7.52;100.00;99965.38;10336029;28;20081;-74
2023/12/09 10:51:15;;;;;;;14.70;6.90;;;;;;;7.42;100.00;99924.50;10335829;28;20062;-71
2023/12/09 10:56:16;;;;;;;13.45;5.68;;;;;;;7.49;100.00;99908.38;10319032;28;20105;-73
2023/12/09 11:01:17;;;;;;;17.23;4.30;;;;;;;7.41;100.00;99872.50;10335105;28;20409;-73
2023/12/09 11:06:17;;;;;;;15.48;4.80;;;;;;;7.41;100.00;99860.91;10319128;28;20355;-72
2023/12/09 11:11:18;;;;;;;13.95;4.75;;;;;;;7.37;100.00;99838.94;10334600;28;20061;-72
2023/12/09 11:16:20;;;;;;;4.47;3.83;;;;;;;7.40;100.00;99826.91;10333387;28;20037;-73
2023/12/09 11:21:25;;;;;;;2.05;2.00;;;;;;;7.48;100.00;99801.66;10334271;28;20134;-77
2023/12/09 11:26:36;;;;;;;0.43;0.43;;;;;;;7.59;100.00;99792.97;10332641;28;20061;-74
2023/12/09 11:31:38;;;;;;;0.47;0.47;;;;;;;7.67;100.00;99757.75;10334054;28;20046;-75
2023/12/09 11:36:38;;;;;;;0.30;0.30;;;;;;;7.69;100.00;99736.84;10333043;28;20026;-76
2023/12/09 11:41:40;;;;;;;0.77;0.77;;;;;;;7.60;100.00;99729.97;10335206;28;20070;-75
2023/12/09 11:46:40;;;;;;;1.52;1.50;;;;;;;7.53;100.00;99708.44;10334573;28;20470;-75
2023/12/09 11:51:41;;;;;;;0.50;0.50;;;;;;;7.45;100.00;99709.44;10318127;28;20045;-74
2023/12/09 11:56:41;;;;;;;0.95;0.95;;;;;;;7.46;100.00;99681.47;10334342;28;20046;-74
2023/12/09 12:01:42;;;;;;;1.25;1.25;;;;;;;7.41;100.00;99658.91;10333793;28;20163;-74
2023/12/09 12:06:42;;;;;;;2.03;1.95;;;;;;;7.41;100.00;99643.56;10330704;28;20046;-73
2023/12/09 12:11:43;;;;;;;0.40;0.40;;;;;;;7.43;100.00;99622.66;10331306;28;20058;-75
2023/12/09 12:16:43;;;;;;;0.50;0.50;;;;;;;7.31;100.00;99618.09;10333799;28;20046;-74
2023/12/09 12:21:44;;;;;;;0.40;0.40;;;;;;;7.22;100.00;99574.41;10317570;28;20054;-75
2023/12/09 12:26:44;;;;;;;0.60;0.60;;;;;;;7.18;100.00;99581.25;10334722;28;20093;-74
2023/12/09 12:31:51;;;;;;;3.50;2.05;;;;;;;7.18;100.00;99541.69;10337289;28;20092;-75
2023/12/09 12:36:51;;;;;;;0.55;0.55;;;;;;;7.14;100.00;99510.00;10336461;28;20041;-79
2023/12/09 12:41:52;;;;;;;1.20;1.20;;;;;;;7.16;100.00;99460.28;10296279;28;20154;-76
2023/12/09 12:46:52;;;;;;;0.50;0.50;;;;;;;7.20;100.00;99450.75;10339384;28;20042;-77
2023/12/09 12:51:53;;;;;;;0.30;0.30;;;;;;;7.21;100.00;99430.88;10340200;28;20142;-76
2023/12/09 12:56:54;;;;;;;0.40;0.40;;;;;;;7.22;100.00;99410.97;10338550;28;20097;-76
2023/12/09 13:01:55;;;;;;;0.63;0.63;;;;;;;7.19;100.00;99367.50;10338788;28;20108;-75
2023/12/09 13:06:55;;;;;;;0.40;0.40;;;;;;;7.11;100.00;99349.72;10341236;28;20088;-77
2023/12/09 13:11:56;;;;;;;0.50;0.50;;;;;;;7.13;100.00;99325.28;10339052;28;20164;-77
2023/12/09 13:16:56;;;;;;;0.40;0.40;;;;;;;7.08;100.00;99296.31;10338524;28;20034;-77
2023/12/09 13:21:57;;;;;;;0.50;0.50;;;;;;;7.10;100.00;99288.03;10339059;28;20132;-77
2023/12/09 13:26:58;;;;;;;0.50;0.50;;;;;;;7.09;100.00;99268.38;10338989;28;20462;-77
2023/12/09 13:31:58;;;;;;;0.50;0.50;;;;;;;7.07;100.00;99231.94;10337655;28;20088;-77
2023/12/09 13:36:59;;;;;;;0.40;0.40;;;;;;;7.12;100.00;99203.34;10338413;28;20477;-77
2023/12/09 13:42:00;;;;;;;0.50;0.50;;;;;;;7.06;100.00;99203.38;10338947;28;20140;-76
2023/12/09 13:47:00;;;;;;;0.40;0.40;;;;;;;7.02;100.00;99202.13;10336439;28;20038;-76
2023/12/09 13:52:00;;;;;;;0.43;0.43;;;;;;;7.01;100.00;99160.94;10338476;28;20050;-76
2023/12/09 13:57:01;;;;;;;0.40;0.40;;;;;;;7.01;100.00;99130.53;10320425;28;20218;-75
2023/12/09 14:02:02;;;;;;;2.05;1.95;;;;;;;6.97;100.00;99136.34;10336303;28;20469;-74
2023/12/09 14:07:02;;;;;;;0.30;0.30;;;;;;;7.04;100.00;99116.63;10338850;28;20042;-76
2023/12/09 14:12:04;;;;;;;1.30;1.30;;;;;;;7.01;100.00;99084.78;10339303;28;20034;-75
2023/12/09 14:17:06;;;;;;;0.60;0.60;;;;;;;6.97;100.00;99062.88;10334872;28;20061;-75
2023/12/09 14:22:09;;;;;;;0.65;0.65;;;;;;;6.96;100.00;99053.16;10336466;28;20427;-76
2023/12/09 14:27:10;;;;;;;0.40;0.40;;;;;;;6.97;100.00;99052.09;10335407;28;20042;-78
2023/12/09 14:32:10;;;;;;;0.90;0.90;;;;;;;7.03;100.00;99042.34;10336379;28;20073;-75
2023/12/09 14:37:12;;;;;;;0.50;0.50;;;;;;;7.03;100.00;99027.00;10336100;28;20049;-75
2023/12/09 14:42:12;;;;;;;0.50;0.50;;;;;;;7.04;100.00;99025.13;10335849;28;20048;-76
2023/12/09 14:47:14;;;;;;;0.40;0.40;;;;;;;7.13;100.00;99030.00;10335204;28;20042;-76
2023/12/09 14:52:15;;;;;;;0.50;0.50;;;;;;;7.11;100.00;99002.50;10333964;28;20089;-76
2023/12/09 14:57:15;;;;;;;0.40;0.40;;;;;;;7.15;100.00;99002.91;10335556;28;20077;-77
2023/12/09 15:02:16;;;;;;;0.50;0.50;;;;;;;7.18;100.00;98995.19;10320392;28;20073;-78
2023/12/09 15:07:16;;;;;;;0.40;0.40;;;;;;;7.24;100.00;98998.84;10336959;28;20057;-77
2023/12/09 15:12:16;;;;;;;0.50;0.50;;;;;;;7.37;100.00;99003.28;10352686;28;20100;-76
2023/12/09 15:17:17;;;;;;;0.50;0.50;;;;;;;7.46;100.00;99013.53;10365968;28;20078;-76
2023/12/09 15:22:17;;;;;;;0.50;0.50;;;;;;;7.66;100.00;98997.16;10368432;28;20026;-76
2023/12/09 15:27:18;;;;;;;0.93;0.93;;;;;;;7.70;100.00;98992.16;10336694;28;20038;-79
2023/12/09 15:32:19;;;;;;;0.40;0.40;;;;;;;7.74;100.00;98968.25;10317846;28;20130;-73
2023/12/09 15:37:19;;;;;;;0.70;0.70;;;;;;;7.81;100.00;98944.75;10334493;28;20046;-76
2023/12/09 15:42:20;;;;;;;0.40;0.40;;;;;;;8.02;100.00;99000.03;10334559;28;20085;-74
2023/12/09 15:47:20;;;;;;;0.35;0.35;;;;;;;8.13;100.00;99005.47;10332959;28;20065;-75
2023/12/09 15:52:20;;;;;;;0.40;0.40;;;;;;;8.20;100.00;98975.75;10335559;28;20050;-75
2023/12/09 15:57:21;;;;;;;0.30;0.30;;;;;;;8.25;100.00;98983.94;10333383;28;20038;-75
2023/12/09 16:02:21;;;;;;;0.50;0.50;;;;;;;8.28;100.00;98955.72;10317347;28;20052;-75
2023/12/09 16:07:22;;;;;;;0.70;0.70;;;;;;;8.35;100.00;98956.41;10331957;28;20154;-75
2023/12/09 16:12:24;;;;;;;0.43;0.43;;;;;;;8.48;100.00;98953.53;10338142;28;20043;-73
2023/12/09 16:17:24;;;;;;;0.88;0.82;;;;;;;8.54;100.00;98952.63;10339741;28;20042;-76
2023/12/09 16:22:25;;;;;;;0.50;0.50;;;;;;;8.61;100.00;98939.88;10341877;28;20045;-72
2023/12/09 16:27:26;;;;;;;0.45;0.45;;;;;;;8.81;100.00;98944.94;10341154;28;20046;-74
2023/12/09 16:32:27;;;;;;;5.15;2.85;;;;;;;8.92;100.00;98931.66;10323286;28;20038;-75
2023/12/09 16:37:27;;;;;;;0.50;0.50;;;;;;;9.03;100.00;98942.47;10340556;28;20073;-74
2023/12/09 16:42:28;;;;;;;0.47;0.47;;;;;;;9.11;100.00;98945.84;10340256;28;20034;-73
2023/12/09 16:47:33;;;;;;;2.00;1.92;;;;;;;9.21;100.00;98949.59;10340418;28;20128;-74
2023/12/09 16:52:34;;;;;;;0.47;0.47;;;;;;;9.35;100.00;98942.09;10340439;28;20061;-73
2023/12/09 16:57:34;;;;;;;1.55;1.55;;;;;;;9.54;100.00;98953.56;10339638;28;20030;-73
2023/12/09 17:02:34;;;;;;;1.30;1.30;;;;;;;9.67;100.00;98957.88;10340483;28;20058;-73
2023/12/09 17:07:35;;;;;;;0.60;0.60;;;;;;;9.86;100.00;98978.25;10338311;28;20034;-73
2023/12/09 17:12:36;;;;;;;1.40;1.38;;;;;;;10.04;100.00;98979.13;10339752;28;20042;-73
2023/12/09 17:17:37;;;;;;;0.40;0.40;;;;;;;10.18;100.00;98989.44;10339326;28;20045;-74
2023/12/09 17:22:38;;;;;;;2.53;2.33;;;;;;;10.24;100.00;98984.91;10338063;28;20569;-74
2023/12/09 17:27:38;;;;;;;5.72;3.60;;;;;;;10.28;100.00;98996.13;10340688;28;20034;-75
2023/12/09 17:32:39;;;;;;;1.27;1.23;;;;;;;10.27;100.00;99003.41;10338078;28;20034;-75
2023/12/09 17:37:39;;;;;;;0.70;0.70;;;;;;;10.31;100.00;99006.47;10339156;28;20077;-77
2023/12/09 17:42:40;;;;;;;1.05;1.05;;;;;;;10.28;100.00;99025.88;10339301;28;20129;-76
2023/12/09 17:47:40;;;;;;;3.38;1.42;;;;;;;10.15;100.00;99040.50;10339289;28;20118;-76
2023/12/09 17:52:41;;;;;;;0.50;0.50;;;;;;;9.99;100.00;99047.47;10337174;28;20064;-76
2023/12/09 17:57:41;;;;;;;0.57;0.57;;;;;;;9.59;100.00;99069.84;10337685;28;20495;-75
2023/12/09 18:02:41;;;;;;;2.30;1.75;;;;;;;9.26;100.00;99071.25;10337708;28;20045;-75
2023/12/09 18:07:42;;;;;;;0.50;0.50;;;;;;;9.03;100.00;99099.06;10335902;28;20034;-75
2023/12/09 18:12:42;;;;;;;0.40;0.40;;;;;;;8.82;100.00;99102.28;10336712;28;20062;-75
2023/12/09 18:17:43;;;;;;;4.70;4.47;;;;;;;8.67;100.00;99112.66;10336007;28;20062;-76
2023/12/09 18:22:43;;;;;;;0.45;0.45;;;;;;;8.41;100.00;99125.47;10334517;28;20042;-75
2023/12/09 18:27:43;;;;;;;0.60;0.60;;;;;;;8.29;100.00;99138.03;10334785;28;20073;-75
2023/12/09 18:32:45;;;;;;;0.65;0.65;;;;;;;8.22;100.00;99146.19;10335696;28;20038;-74
2023/12/09 18:37:45;;;;;;;4.97;4.63;;;;;;;8.13;100.00;99153.75;10353043;28;20074;-73
2023/12/09 18:42:46;;;;;;;13.90;6.18;;;;;;;8.07;100.00;99153.81;10333663;28;20507;-73
2023/12/09 18:47:46;;;;;;;0.45;0.45;;;;;;;8.11;100.00;99168.53;10334219;28;20038;-75
2023/12/09 18:52:47;;;;;;;0.52;0.52;;;;;;;8.12;100.00;99170.16;10336543;28;20086;-72
2023/12/09 18:57:47;;;;;;;0.60;0.60;;;;;;;8.28;100.00;99193.00;10334636;28;20120;-73
2023/12/09 19:02:48;;;;;;;2.50;2.33;;;;;;;8.54;100.00;99203.53;10335164;28;20034;-73
2023/12/09 19:07:48;;;;;;;0.90;0.90;;;;;;;8.67;100.00;99207.13;10334269;28;20057;-73
2023/12/09 19:12:49;;;;;;;4.70;4.22;;;;;;;8.80;100.00;99210.47;10333004;28;20030;-73
2023/12/09 19:17:49;;;;;;;0.57;0.57;;;;;;;8.80;100.00;99202.34;10332137;28;20034;-71
2023/12/09 19:22:50;;;;;;;1.42;1.38;;;;;;;8.77;100.00;99202.00;10333710;28;20092;-71
2023/12/09 19:27:54;;;;;;;1.27;1.27;;;;;;;8.92;100.00;99207.00;10332810;28;20041;-73
2023/12/09 19:32:55;;;;;;;2.45;2.35;;;;;;;8.89;100.00;99227.16;10333935;28;20363;-73
2023/12/09 19:37:55;;;;;;;0.70;0.70;;;;;;;8.95;100.00;99238.94;10331127;28;20062;-72
2023/12/09 19:42:56;;;;;;;0.70;0.70;;;;;;;9.07;100.00;99272.22;10331399;28;20039;-71
2023/12/09 19:47:58;;;;;;;0.50;0.50;;;;;;;9.12;100.00;99275.03;10333855;28;20077;-71
2023/12/09 19:53:00;;;;;;;31.42;8.82;;;;;;;9.24;100.00;99288.63;10319927;28;20094;-72
2023/12/09 19:58:01;;;;;;;22.25;8.30;;;;;;;9.15;100.00;99288.09;10332260;28;20108;-72
2023/12/09 20:03:01;;;;;;;34.05;7.00;;;;;;;9.13;100.00;99294.81;10331596;28;20465;-71
2023/12/09 20:08:02;;;;;;;34.22;8.27;;;;;;;9.10;100.00;99303.34;10332855;28;20069;-72
2023/12/09 20:13:02;;;;;;;25.48;7.13;;;;;;;8.94;100.00;99300.22;10332829;28;20118;-72
2023/12/09 20:18:03;;;;;;;22.58;7.05;;;;;;;8.86;100.00;99308.59;10331149;28;20064;-70
2023/12/09 20:23:04;;;;;;;19.05;7.22;;;;;;;8.82;100.00;99323.59;10332585;28;20390;-70
2023/12/09 20:28:06;;;;;;;25.70;8.23;;;;;;;8.89;100.00;99339.72;10330918;28;20121;-72
2023/12/09 20:33:07;;;;;;;28.58;5.82;;;;;;;8.89;100.00;99345.94;10330842;28;20038;-70
2023/12/09 20:38:07;;;;;;;21.73;5.43;;;;;;;8.93;100.00;99349.84;10313766;28;20066;-70
2023/12/09 20:43:07;;;;;;;29.25;8.15;;;;;;;9.00;100.00;99353.31;10331449;28;20062;-70
2023/12/09 20:48:08;;;;;;;25.80;9.48;;;;;;;8.95;100.00;99358.56;10333753;28;20498;-70
2023/12/09 20:53:09;;;;;;;21.52;7.75;;;;;;;8.89;100.00;99358.63;10333313;28;20035;-70
2023/12/09 20:58:11;;;;;;;26.80;7.97;;;;;;;8.82;100.00;99367.63;10336971;28;20117;-71
2023/12/09 21:03:11;;;;;;;29.55;10.02;;;;;;;8.80;100.00;99395.88;10338505;28;20409;-71
2023/12/09 21:08:12;;;;;;;32.75;8.63;;;;;;;8.70;100.00;99400.97;10337930;28;20083;-68
2023/12/09 21:13:12;;;;;;;27.20;6.95;;;;;;;8.61;100.00;99406.66;10338193;28;20054;-70
2023/12/09 21:18:13;;;;;;;27.35;9.00;;;;;;;8.46;100.00;99430.44;10336812;28;20195;-71
2023/12/09 21:23:14;;;;;;;14.75;5.88;;;;;;;8.42;100.00;99445.38;10337858;28;20050;-71
2023/12/09 21:28:14;;;;;;;24.00;8.10;;;;;;;8.37;100.00;99458.69;10336557;28;20224;-69
2023/12/09 21:33:15;;;;;;;33.75;7.32;;;;;;;8.46;100.00;99459.28;10338010;28;20048;-70
2023/12/09 21:38:15;;;;;;;31.48;7.20;;;;;;;8.37;100.00;99477.56;10338585;28;20089;-71
2023/12/09 21:43:16;;;;;;;18.75;7.78;;;;;;;8.37;100.00;99505.38;10322037;28;20026;-72
2023/12/09 21:48:16;;;;;;;21.60;5.78;;;;;;;8.40;100.00;99509.53;10336236;28;20034;-71
2023/12/09 21:53:17;;;;;;;45.63;9.95;;;;;;;8.31;100.00;99513.50;10337840;28;20125;-73
2023/12/09 21:58:17;;;;;;;27.20;6.90;;;;;;;8.37;100.00;99510.75;10335812;28;20034;-72
2023/12/09 22:03:18;;;;;;;44.40;7.97;;;;;;;8.32;100.00;99517.84;10319683;28;20382;-70
2023/12/09 22:08:18;;;;;;;20.05;6.50;;;;;;;8.34;100.00;99524.69;10335852;28;20054;-71
2023/12/09 22:13:19;;;;;;;34.15;7.07;;;;;;;8.34;100.00;99521.16;10338812;28;20049;-72
2023/12/09 22:18:19;;;;;;;20.75;8.52;;;;;;;8.32;100.00;99539.41;10339857;28;20026;-72
2023/12/09 22:23:19;;;;;;;16.60;7.45;;;;;;;8.41;100.00;99540.84;10337298;28;20026;-71
2023/12/09 22:28:21;;;;;;;15.95;6.25;;;;;;;8.55;100.00;99550.53;10336278;28;20034;-71
2023/12/09 22:33:21;;;;;;;25.20;9.98;;;;;;;8.79;100.00;99538.09;10335477;28;20383;-71
2023/12/09 22:38:22;;;;;;;21.70;7.53;;;;;;;8.94;100.00;99554.00;10335482;28;20056;-71
2023/12/09 22:43:22;;;;;;;19.55;9.02;;;;;;;9.03;100.00;99549.97;10333438;28;20042;-72
2023/12/09 22:48:22;;;;;;;29.98;7.22;;;;;;;9.15;100.00;99558.16;10334777;28;20089;-72
2023/12/09 22:53:23;;;;;;;23.10;5.90;;;;;;;9.21;100.00;99554.59;10335869;28;20042;-71
2023/12/09 22:58:24;;;;;;;21.67;7.32;;;;;;;9.29;100.00;99558.91;10333345;28;20058;-71